sensor_id;sensor_type;location;lat;lon;timestamp;P1;durP1;ratioP1;P2;durP2;ratioP2
16516;SDS011;8371;52.272;9.746;2023-04-09T00:00:35;7.53;;;7.03;;
16516;SDS011;8371;52.272;9.746;2023-04-09T00:03:01;7.50;;;6.97;;
16516;SDS011;8371;52.272;9.746;2023-04-09T00:05:26;8.23;;;7.60;;
16516;SDS011;8371;52.272;9.746;2023-04-09T00:07:52;8.27;;;7.70;;
16516;SDS011;8371;52.272;9.746;2023-04-09T00:10:18;8.33;;;7.73;;
16516;SDS011;8371;52.272;9.746;2023-04-09T00:12:43;9.70;;;9.00;;
16516;SDS011;8371;52.272;9.746;2023-04-09T00:15:09;9.30;;;8.50;;
16516;SDS011;8371;52.272;9.746;2023-04-09T00:17:36;8.00;;;7.33;;
16516;SDS011;8371;52.272;9.746;2023-04-09T00:20:02;7.63;;;6.97;;
16516;SDS011;8371;52.272;9.746;2023-04-09T00:22:29;8.70;;;8.07;;
16516;SDS011;8371;52.272;9.746;2023-04-09T00:24:54;8.40;;;7.57;;
16516;SDS011;8371;52.272;9.746;2023-04-09T00:27:21;7.57;;;7.17;;
16516;SDS011;8371;52.272;9.746;2023-04-09T00:29:47;8.33;;;7.70;;
16516;SDS011;8371;52.272;9.746;2023-04-09T00:32:13;8.33;;;7.63;;
16516;SDS011;8371;52.272;9.746;2023-04-09T00:34:38;7.37;;;6.90;;
16516;SDS011;8371;52.272;9.746;2023-04-09T00:37:04;8.30;;;7.80;;
16516;SDS011;8371;52.272;9.746;2023-04-09T00:39:30;8.13;;;7.57;;
16516;SDS011;8371;52.272;9.746;2023-04-09T00:41:56;8.50;;;7.97;;
16516;SDS011;8371;52.272;9.746;2023-04-09T00:44:23;8.93;;;8.13;;
16516;SDS011;8371;52.272;9.746;2023-04-09T00:46:50;12.53;;;9.87;;
16516;SDS011;8371;52.272;9.746;2023-04-09T00:49:17;11.60;;;9.03;;
16516;SDS011;8371;52.272;9.746;2023-04-09T00:51:43;12.10;;;8.93;;
16516;SDS011;8371;52.272;9.746;2023-04-09T00:54:10;9.20;;;8.27;;
16516;SDS011;8371;52.272;9.746;2023-04-09T00:56:37;10.40;;;9.40;;
16516;SDS011;8371;52.272;9.746;2023-04-09T00:59:03;9.17;;;8.30;;
16516;SDS011;8371;52.272;9.746;2023-04-09T01:01:29;15.53;;;9.83;;
16516;SDS011;8371;52.272;9.746;2023-04-09T01:03:55;12.10;;;9.20;;
16516;SDS011;8371;52.272;9.746;2023-04-09T01:06:24;10.17;;;8.97;;
16516;SDS011;8371;52.272;9.746;2023-04-09T01:12:00;10.43;;;8.27;;
16516;SDS011;8371;52.272;9.746;2023-04-09T01:14:53;12.23;;;8.93;;
16516;SDS011;8371;52.272;9.746;2023-04-09T01:17:23;16.70;;;11.10;;
16516;SDS011;8371;52.272;9.746;2023-04-09T01:19:55;12.00;;;10.00;;
16516;SDS011;8371;52.272;9.746;2023-04-09T01:25:36;22.10;;;10.83;;
16516;SDS011;8371;52.272;9.746;2023-04-09T01:28:15;9.37;;;8.60;;
16516;SDS011;8371;52.272;9.746;2023-04-09T01:31:08;15.03;;;10.20;;
16516;SDS011;8371;52.272;9.746;2023-04-09T01:33:37;9.93;;;9.13;;
16516;SDS011;8371;52.272;9.746;2023-04-09T01:36:05;10.60;;;8.73;;
16516;SDS011;8371;52.272;9.746;2023-04-09T01:38:32;9.73;;;8.87;;
16516;SDS011;8371;52.272;9.746;2023-04-09T01:41:00;10.87;;;8.67;;
16516;SDS011;8371;52.272;9.746;2023-04-09T01:43:28;11.27;;;8.10;;
16516;SDS011;8371;52.272;9.746;2023-04-09T01:45:56;8.60;;;7.87;;
16516;SDS011;8371;52.272;9.746;2023-04-09T01:48:23;11.00;;;7.57;;
16516;SDS011;8371;52.272;9.746;2023-04-09T01:50:49;9.53;;;7.43;;
16516;SDS011;8371;52.272;9.746;2023-04-09T01:53:15;8.20;;;7.70;;
16516;SDS011;8371;52.272;9.746;2023-04-09T01:55:41;9.50;;;7.80;;
16516;SDS011;8371;52.272;9.746;2023-04-09T01:58:07;8.53;;;7.93;;
16516;SDS011;8371;52.272;9.746;2023-04-09T02:00:34;9.13;;;8.47;;
16516;SDS011;8371;52.272;9.746;2023-04-09T02:03:07;7.23;;;6.73;;
16516;SDS011;8371;52.272;9.746;2023-04-09T02:05:35;8.20;;;7.00;;
16516;SDS011;8371;52.272;9.746;2023-04-09T02:08:04;7.23;;;6.83;;
16516;SDS011;8371;52.272;9.746;2023-04-09T02:10:34;7.57;;;6.97;;
16516;SDS011;8371;52.272;9.746;2023-04-09T02:13:02;14.27;;;8.60;;
16516;SDS011;8371;52.272;9.746;2023-04-09T02:15:30;11.23;;;8.07;;
16516;SDS011;8371;52.272;9.746;2023-04-09T02:17:58;6.80;;;6.47;;
16516;SDS011;8371;52.272;9.746;2023-04-09T02:20:23;7.20;;;6.83;;
16516;SDS011;8371;52.272;9.746;2023-04-09T02:22:49;8.43;;;6.87;;
16516;SDS011;8371;52.272;9.746;2023-04-09T02:25:15;8.20;;;7.63;;
16516;SDS011;8371;52.272;9.746;2023-04-09T02:27:40;11.67;;;6.70;;
16516;SDS011;8371;52.272;9.746;2023-04-09T02:30:06;8.03;;;6.80;;
16516;SDS011;8371;52.272;9.746;2023-04-09T02:32:32;9.57;;;7.27;;
16516;SDS011;8371;52.272;9.746;2023-04-09T02:34:58;9.67;;;7.43;;
16516;SDS011;8371;52.272;9.746;2023-04-09T02:37:24;12.03;;;7.50;;
16516;SDS011;8371;52.272;9.746;2023-04-09T02:39:50;13.20;;;7.17;;
16516;SDS011;8371;52.272;9.746;2023-04-09T02:42:15;9.60;;;7.30;;
16516;SDS011;8371;52.272;9.746;2023-04-09T02:44:41;7.50;;;6.97;;
16516;SDS011;8371;52.272;9.746;2023-04-09T02:47:08;9.63;;;7.03;;
16516;SDS011;8371;52.272;9.746;2023-04-09T02:49:34;7.50;;;6.97;;
16516;SDS011;8371;52.272;9.746;2023-04-09T02:51:59;9.57;;;7.07;;
16516;SDS011;8371;52.272;9.746;2023-04-09T02:54:25;7.67;;;7.07;;
16516;SDS011;8371;52.272;9.746;2023-04-09T02:56:51;9.90;;;6.63;;
16516;SDS011;8371;52.272;9.746;2023-04-09T02:59:16;5.90;;;5.57;;
16516;SDS011;8371;52.272;9.746;2023-04-09T03:01:42;6.50;;;6.03;;
16516;SDS011;8371;52.272;9.746;2023-04-09T03:04:08;10.80;;;6.53;;
16516;SDS011;8371;52.272;9.746;2023-04-09T03:06:33;11.23;;;7.13;;
16516;SDS011;8371;52.272;9.746;2023-04-09T03:08:59;14.20;;;7.00;;
16516;SDS011;8371;52.272;9.746;2023-04-09T03:11:25;7.13;;;6.73;;
16516;SDS011;8371;52.272;9.746;2023-04-09T03:13:50;6.90;;;6.50;;
16516;SDS011;8371;52.272;9.746;2023-04-09T03:16:16;7.07;;;6.57;;
16516;SDS011;8371;52.272;9.746;2023-04-09T03:18:42;6.47;;;6.07;;
16516;SDS011;8371;52.272;9.746;2023-04-09T03:21:07;6.90;;;6.53;;
16516;SDS011;8371;52.272;9.746;2023-04-09T03:23:33;7.10;;;6.70;;
16516;SDS011;8371;52.272;9.746;2023-04-09T03:26:00;6.57;;;6.20;;
16516;SDS011;8371;52.272;9.746;2023-04-09T03:28:27;7.83;;;7.33;;
16516;SDS011;8371;52.272;9.746;2023-04-09T03:30:52;7.00;;;6.30;;
16516;SDS011;8371;52.272;9.746;2023-04-09T03:33:18;6.87;;;6.47;;
16516;SDS011;8371;52.272;9.746;2023-04-09T03:35:44;8.20;;;6.50;;
16516;SDS011;8371;52.272;9.746;2023-04-09T03:38:09;6.97;;;6.67;;
16516;SDS011;8371;52.272;9.746;2023-04-09T03:40:35;6.97;;;6.63;;
16516;SDS011;8371;52.272;9.746;2023-04-09T03:43:01;6.47;;;6.17;;
16516;SDS011;8371;52.272;9.746;2023-04-09T03:45:28;9.17;;;6.97;;
16516;SDS011;8371;52.272;9.746;2023-04-09T03:47:54;6.77;;;6.20;;
16516;SDS011;8371;52.272;9.746;2023-04-09T03:50:20;7.23;;;6.83;;
16516;SDS011;8371;52.272;9.746;2023-04-09T03:52:45;6.73;;;6.43;;
16516;SDS011;8371;52.272;9.746;2023-04-09T03:55:11;6.63;;;6.23;;
16516;SDS011;8371;52.272;9.746;2023-04-09T03:57:37;13.40;;;7.30;;
16516;SDS011;8371;52.272;9.746;2023-04-09T04:00:03;7.00;;;6.63;;
16516;SDS011;8371;52.272;9.746;2023-04-09T04:02:29;8.23;;;7.73;;
16516;SDS011;8371;52.272;9.746;2023-04-09T04:04:56;6.47;;;6.17;;
16516;SDS011;8371;52.272;9.746;2023-04-09T04:07:22;7.23;;;6.70;;
16516;SDS011;8371;52.272;9.746;2023-04-09T04:09:48;8.37;;;7.63;;
16516;SDS011;8371;52.272;9.746;2023-04-09T04:12:13;7.87;;;7.47;;
16516;SDS011;8371;52.272;9.746;2023-04-09T04:14:39;8.27;;;7.67;;
16516;SDS011;8371;52.272;9.746;2023-04-09T04:17:05;8.13;;;7.63;;
16516;SDS011;8371;52.272;9.746;2023-04-09T04:19:31;10.10;;;7.03;;
16516;SDS011;8371;52.272;9.746;2023-04-09T04:21:56;7.53;;;7.03;;
16516;SDS011;8371;52.272;9.746;2023-04-09T04:24:22;6.40;;;5.93;;
16516;SDS011;8371;52.272;9.746;2023-04-09T04:26:48;6.67;;;6.10;;
16516;SDS011;8371;52.272;9.746;2023-04-09T04:29:14;7.33;;;6.73;;
16516;SDS011;8371;52.272;9.746;2023-04-09T04:31:39;9.17;;;6.87;;
16516;SDS011;8371;52.272;9.746;2023-04-09T04:34:05;15.67;;;6.77;;
16516;SDS011;8371;52.272;9.746;2023-04-09T04:36:31;7.30;;;6.63;;
16516;SDS011;8371;52.272;9.746;2023-04-09T04:38:56;6.60;;;6.30;;
16516;SDS011;8371;52.272;9.746;2023-04-09T04:41:22;6.60;;;6.30;;
16516;SDS011;8371;52.272;9.746;2023-04-09T04:43:48;6.60;;;6.20;;
16516;SDS011;8371;52.272;9.746;2023-04-09T04:46:13;15.10;;;7.47;;
16516;SDS011;8371;52.272;9.746;2023-04-09T04:48:39;7.23;;;6.63;;
16516;SDS011;8371;52.272;9.746;2023-04-09T04:51:05;8.83;;;7.13;;
16516;SDS011;8371;52.272;9.746;2023-04-09T04:53:30;7.43;;;6.93;;
16516;SDS011;8371;52.272;9.746;2023-04-09T04:55:56;10.83;;;6.80;;
16516;SDS011;8371;52.272;9.746;2023-04-09T04:58:22;7.63;;;7.00;;
16516;SDS011;8371;52.272;9.746;2023-04-09T05:00:48;6.17;;;5.90;;
16516;SDS011;8371;52.272;9.746;2023-04-09T05:03:14;6.90;;;6.33;;
16516;SDS011;8371;52.272;9.746;2023-04-09T05:05:40;6.63;;;6.23;;
16516;SDS011;8371;52.272;9.746;2023-04-09T05:08:06;18.27;;;5.93;;
16516;SDS011;8371;52.272;9.746;2023-04-09T05:10:32;6.50;;;6.13;;
16516;SDS011;8371;52.272;9.746;2023-04-09T05:12:57;6.60;;;6.20;;
16516;SDS011;8371;52.272;9.746;2023-04-09T05:15:23;6.47;;;5.87;;
16516;SDS011;8371;52.272;9.746;2023-04-09T05:17:49;5.70;;;5.40;;
16516;SDS011;8371;52.272;9.746;2023-04-09T05:20:15;6.77;;;5.93;;
16516;SDS011;8371;52.272;9.746;2023-04-09T05:22:40;8.43;;;6.37;;
16516;SDS011;8371;52.272;9.746;2023-04-09T05:25:06;11.87;;;5.97;;
16516;SDS011;8371;52.272;9.746;2023-04-09T05:27:32;21.30;;;5.20;;
16516;SDS011;8371;52.272;9.746;2023-04-09T05:29:58;7.33;;;5.97;;
16516;SDS011;8371;52.272;9.746;2023-04-09T05:32:24;5.27;;;5.00;;
16516;SDS011;8371;52.272;9.746;2023-04-09T05:34:50;5.63;;;5.33;;
16516;SDS011;8371;52.272;9.746;2023-04-09T05:37:15;5.37;;;5.07;;
16516;SDS011;8371;52.272;9.746;2023-04-09T05:39:41;5.87;;;5.57;;
16516;SDS011;8371;52.272;9.746;2023-04-09T05:42:06;4.67;;;4.47;;
16516;SDS011;8371;52.272;9.746;2023-04-09T05:44:32;10.43;;;5.33;;
16516;SDS011;8371;52.272;9.746;2023-04-09T05:46:58;5.30;;;5.03;;
16516;SDS011;8371;52.272;9.746;2023-04-09T05:49:24;7.97;;;5.53;;
16516;SDS011;8371;52.272;9.746;2023-04-09T05:51:50;5.33;;;5.10;;
16516;SDS011;8371;52.272;9.746;2023-04-09T05:54:16;5.90;;;5.57;;
16516;SDS011;8371;52.272;9.746;2023-04-09T05:56:42;6.00;;;5.70;;
16516;SDS011;8371;52.272;9.746;2023-04-09T05:59:07;9.63;;;6.37;;
16516;SDS011;8371;52.272;9.746;2023-04-09T06:01:33;6.77;;;6.37;;
16516;SDS011;8371;52.272;9.746;2023-04-09T06:03:59;5.63;;;5.33;;
16516;SDS011;8371;52.272;9.746;2023-04-09T06:06:25;6.57;;;6.17;;
16516;SDS011;8371;52.272;9.746;2023-04-09T06:08:51;5.97;;;5.67;;
16516;SDS011;8371;52.272;9.746;2023-04-09T06:11:17;14.40;;;6.53;;
16516;SDS011;8371;52.272;9.746;2023-04-09T06:13:42;6.60;;;6.23;;
16516;SDS011;8371;52.272;9.746;2023-04-09T06:16:09;12.30;;;6.50;;
16516;SDS011;8371;52.272;9.746;2023-04-09T06:18:35;7.10;;;6.63;;
16516;SDS011;8371;52.272;9.746;2023-04-09T06:21:02;9.40;;;7.07;;
16516;SDS011;8371;52.272;9.746;2023-04-09T06:23:28;7.23;;;6.60;;
16516;SDS011;8371;52.272;9.746;2023-04-09T06:25:54;8.47;;;7.70;;
16516;SDS011;8371;52.272;9.746;2023-04-09T06:28:20;7.60;;;6.87;;
16516;SDS011;8371;52.272;9.746;2023-04-09T06:30:45;7.70;;;7.03;;
16516;SDS011;8371;52.272;9.746;2023-04-09T06:33:11;10.67;;;7.43;;
16516;SDS011;8371;52.272;9.746;2023-04-09T06:35:37;8.73;;;8.07;;
16516;SDS011;8371;52.272;9.746;2023-04-09T06:38:03;8.67;;;8.03;;
16516;SDS011;8371;52.272;9.746;2023-04-09T06:40:29;8.83;;;7.97;;
16516;SDS011;8371;52.272;9.746;2023-04-09T06:42:55;11.97;;;8.27;;
16516;SDS011;8371;52.272;9.746;2023-04-09T06:45:20;8.90;;;8.00;;
16516;SDS011;8371;52.272;9.746;2023-04-09T06:47:46;8.67;;;8.07;;
16516;SDS011;8371;52.272;9.746;2023-04-09T06:50:11;9.00;;;8.13;;
16516;SDS011;8371;52.272;9.746;2023-04-09T06:52:37;9.00;;;8.20;;
16516;SDS011;8371;52.272;9.746;2023-04-09T06:55:03;9.10;;;8.40;;
16516;SDS011;8371;52.272;9.746;2023-04-09T06:57:29;8.27;;;7.47;;
16516;SDS011;8371;52.272;9.746;2023-04-09T06:59:55;9.03;;;8.27;;
16516;SDS011;8371;52.272;9.746;2023-04-09T07:02:21;8.27;;;7.47;;
16516;SDS011;8371;52.272;9.746;2023-04-09T07:04:46;11.20;;;8.57;;
16516;SDS011;8371;52.272;9.746;2023-04-09T07:07:12;8.90;;;8.13;;
16516;SDS011;8371;52.272;9.746;2023-04-09T07:09:38;8.67;;;7.83;;
16516;SDS011;8371;52.272;9.746;2023-04-09T07:12:03;8.10;;;7.37;;
16516;SDS011;8371;52.272;9.746;2023-04-09T07:14:29;9.23;;;8.30;;
16516;SDS011;8371;52.272;9.746;2023-04-09T07:16:55;9.70;;;8.77;;
16516;SDS011;8371;52.272;9.746;2023-04-09T07:19:20;8.87;;;8.17;;
16516;SDS011;8371;52.272;9.746;2023-04-09T07:21:46;9.07;;;8.40;;
16516;SDS011;8371;52.272;9.746;2023-04-09T07:24:12;9.37;;;8.70;;
16516;SDS011;8371;52.272;9.746;2023-04-09T07:26:37;9.77;;;8.97;;
16516;SDS011;8371;52.272;9.746;2023-04-09T07:29:03;8.93;;;8.43;;
16516;SDS011;8371;52.272;9.746;2023-04-09T07:31:29;10.43;;;9.60;;
16516;SDS011;8371;52.272;9.746;2023-04-09T07:33:55;9.53;;;8.73;;
16516;SDS011;8371;52.272;9.746;2023-04-09T07:36:21;10.37;;;9.43;;
16516;SDS011;8371;52.272;9.746;2023-04-09T07:38:47;11.30;;;10.23;;
16516;SDS011;8371;52.272;9.746;2023-04-09T07:41:12;9.93;;;9.23;;
16516;SDS011;8371;52.272;9.746;2023-04-09T07:43:39;10.07;;;9.23;;
16516;SDS011;8371;52.272;9.746;2023-04-09T07:46:05;10.20;;;9.20;;
16516;SDS011;8371;52.272;9.746;2023-04-09T07:48:31;10.23;;;9.23;;
16516;SDS011;8371;52.272;9.746;2023-04-09T07:50:56;10.40;;;9.40;;
16516;SDS011;8371;52.272;9.746;2023-04-09T07:53:22;11.57;;;10.47;;
16516;SDS011;8371;52.272;9.746;2023-04-09T07:55:49;10.50;;;9.60;;
16516;SDS011;8371;52.272;9.746;2023-04-09T07:58:16;12.83;;;11.50;;
16516;SDS011;8371;52.272;9.746;2023-04-09T08:00:42;14.43;;;12.83;;
16516;SDS011;8371;52.272;9.746;2023-04-09T08:03:07;16.80;;;13.03;;
16516;SDS011;8371;52.272;9.746;2023-04-09T08:05:34;14.27;;;11.73;;
16516;SDS011;8371;52.272;9.746;2023-04-09T08:08:00;13.03;;;11.67;;
16516;SDS011;8371;52.272;9.746;2023-04-09T08:10:26;15.43;;;12.10;;
16516;SDS011;8371;52.272;9.746;2023-04-09T08:12:51;12.03;;;10.83;;
16516;SDS011;8371;52.272;9.746;2023-04-09T08:15:17;11.77;;;10.57;;
16516;SDS011;8371;52.272;9.746;2023-04-09T08:17:43;12.00;;;10.87;;
16516;SDS011;8371;52.272;9.746;2023-04-09T08:20:09;12.73;;;11.57;;
16516;SDS011;8371;52.272;9.746;2023-04-09T08:22:35;12.03;;;10.87;;
16516;SDS011;8371;52.272;9.746;2023-04-09T08:25:01;11.53;;;10.60;;
16516;SDS011;8371;52.272;9.746;2023-04-09T08:27:27;11.40;;;10.40;;
16516;SDS011;8371;52.272;9.746;2023-04-09T08:29:52;11.63;;;10.57;;
16516;SDS011;8371;52.272;9.746;2023-04-09T08:32:18;11.70;;;10.60;;
16516;SDS011;8371;52.272;9.746;2023-04-09T08:34:44;16.50;;;12.07;;
16516;SDS011;8371;52.272;9.746;2023-04-09T08:37:09;13.80;;;11.50;;
16516;SDS011;8371;52.272;9.746;2023-04-09T08:39:35;16.80;;;12.93;;
16516;SDS011;8371;52.272;9.746;2023-04-09T08:42:01;18.90;;;14.87;;
16516;SDS011;8371;52.272;9.746;2023-04-09T08:44:29;19.07;;;15.37;;
16516;SDS011;8371;52.272;9.746;2023-04-09T08:46:55;22.33;;;16.00;;
16516;SDS011;8371;52.272;9.746;2023-04-09T08:49:21;16.20;;;14.33;;
16516;SDS011;8371;52.272;9.746;2023-04-09T08:51:47;16.63;;;14.73;;
16516;SDS011;8371;52.272;9.746;2023-04-09T08:54:13;15.47;;;13.87;;
16516;SDS011;8371;52.272;9.746;2023-04-09T08:56:41;15.27;;;13.73;;
16516;SDS011;8371;52.272;9.746;2023-04-09T08:59:08;15.17;;;13.73;;
16516;SDS011;8371;52.272;9.746;2023-04-09T09:01:34;14.00;;;12.67;;
16516;SDS011;8371;52.272;9.746;2023-04-09T09:04:00;13.23;;;12.13;;
16516;SDS011;8371;52.272;9.746;2023-04-09T09:06:29;13.87;;;12.40;;
16516;SDS011;8371;52.272;9.746;2023-04-09T09:09:04;14.50;;;13.20;;
16516;SDS011;8371;52.272;9.746;2023-04-09T09:11:41;13.73;;;12.43;;
16516;SDS011;8371;52.272;9.746;2023-04-09T09:14:15;12.17;;;11.07;;
16516;SDS011;8371;52.272;9.746;2023-04-09T09:16:40;13.33;;;12.27;;
16516;SDS011;8371;52.272;9.746;2023-04-09T09:19:30;11.93;;;11.00;;
16516;SDS011;8371;52.272;9.746;2023-04-09T09:21:55;11.53;;;10.63;;
16516;SDS011;8371;52.272;9.746;2023-04-09T09:24:22;11.23;;;10.23;;
16516;SDS011;8371;52.272;9.746;2023-04-09T09:26:48;10.97;;;10.03;;
16516;SDS011;8371;52.272;9.746;2023-04-09T09:29:14;11.83;;;10.93;;
16516;SDS011;8371;52.272;9.746;2023-04-09T09:31:49;11.57;;;10.67;;
16516;SDS011;8371;52.272;9.746;2023-04-09T09:34:17;11.93;;;10.93;;
16516;SDS011;8371;52.272;9.746;2023-04-09T09:36:45;11.57;;;10.47;;
16516;SDS011;8371;52.272;9.746;2023-04-09T09:39:11;11.17;;;10.27;;
16516;SDS011;8371;52.272;9.746;2023-04-09T09:41:38;13.33;;;12.13;;
16516;SDS011;8371;52.272;9.746;2023-04-09T09:44:05;11.60;;;10.73;;
16516;SDS011;8371;52.272;9.746;2023-04-09T09:46:33;11.70;;;10.73;;
16516;SDS011;8371;52.272;9.746;2023-04-09T09:49:00;11.63;;;10.70;;
16516;SDS011;8371;52.272;9.746;2023-04-09T09:51:26;11.57;;;10.77;;
16516;SDS011;8371;52.272;9.746;2023-04-09T09:53:54;11.30;;;10.47;;
16516;SDS011;8371;52.272;9.746;2023-04-09T09:56:23;11.80;;;11.00;;
16516;SDS011;8371;52.272;9.746;2023-04-09T09:58:55;12.23;;;11.23;;
16516;SDS011;8371;52.272;9.746;2023-04-09T10:01:41;11.63;;;10.73;;
16516;SDS011;8371;52.272;9.746;2023-04-09T10:04:08;13.43;;;12.33;;
16516;SDS011;8371;52.272;9.746;2023-04-09T10:06:41;13.20;;;12.10;;
16516;SDS011;8371;52.272;9.746;2023-04-09T10:09:09;14.03;;;12.83;;
16516;SDS011;8371;52.272;9.746;2023-04-09T10:11:37;12.40;;;11.33;;
16516;SDS011;8371;52.272;9.746;2023-04-09T10:14:05;14.07;;;12.87;;
16516;SDS011;8371;52.272;9.746;2023-04-09T10:16:31;14.40;;;13.03;;
16516;SDS011;8371;52.272;9.746;2023-04-09T10:18:57;15.57;;;13.97;;
16516;SDS011;8371;52.272;9.746;2023-04-09T10:24:09;16.93;;;15.13;;
16516;SDS011;8371;52.272;9.746;2023-04-09T10:26:38;17.70;;;15.90;;
16516;SDS011;8371;52.272;9.746;2023-04-09T10:29:09;22.73;;;18.90;;
16516;SDS011;8371;52.272;9.746;2023-04-09T10:31:44;23.40;;;19.03;;
16516;SDS011;8371;52.272;9.746;2023-04-09T10:34:16;27.67;;;20.83;;
16516;SDS011;8371;52.272;9.746;2023-04-09T10:36:43;28.03;;;22.07;;
16516;SDS011;8371;52.272;9.746;2023-04-09T10:39:11;23.37;;;20.90;;
16516;SDS011;8371;52.272;9.746;2023-04-09T10:41:38;25.30;;;20.77;;
16516;SDS011;8371;52.272;9.746;2023-04-09T10:44:20;30.53;;;23.07;;
16516;SDS011;8371;52.272;9.746;2023-04-09T10:46:47;29.60;;;22.70;;
16516;SDS011;8371;52.272;9.746;2023-04-09T10:49:15;30.63;;;22.87;;
16516;SDS011;8371;52.272;9.746;2023-04-09T10:51:52;32.20;;;24.57;;
16516;SDS011;8371;52.272;9.746;2023-04-09T10:59:41;28.67;;;22.03;;
16516;SDS011;8371;52.272;9.746;2023-04-09T11:02:18;30.00;;;21.60;;
16516;SDS011;8371;52.272;9.746;2023-04-09T11:07:46;27.00;;;20.60;;
16516;SDS011;8371;52.272;9.746;2023-04-09T11:10:14;27.80;;;20.67;;
16516;SDS011;8371;52.272;9.746;2023-04-09T11:12:39;23.70;;;19.53;;
16516;SDS011;8371;52.272;9.746;2023-04-09T11:15:05;27.07;;;20.07;;
16516;SDS011;8371;52.272;9.746;2023-04-09T11:17:43;26.83;;;19.33;;
16516;SDS011;8371;52.272;9.746;2023-04-09T11:20:10;26.97;;;21.27;;
16516;SDS011;8371;52.272;9.746;2023-04-09T11:22:35;32.67;;;23.03;;
16516;SDS011;8371;52.272;9.746;2023-04-09T11:25:02;31.07;;;22.10;;
16516;SDS011;8371;52.272;9.746;2023-04-09T11:27:28;30.73;;;21.90;;
16516;SDS011;8371;52.272;9.746;2023-04-09T11:29:54;32.67;;;22.67;;
16516;SDS011;8371;52.272;9.746;2023-04-09T11:32:21;28.87;;;21.90;;
16516;SDS011;8371;52.272;9.746;2023-04-09T11:34:46;25.07;;;19.23;;
16516;SDS011;8371;52.272;9.746;2023-04-09T11:37:15;26.37;;;20.87;;
16516;SDS011;8371;52.272;9.746;2023-04-09T11:39:44;31.10;;;21.90;;
16516;SDS011;8371;52.272;9.746;2023-04-09T11:42:13;25.60;;;19.93;;
16516;SDS011;8371;52.272;9.746;2023-04-09T11:44:40;28.50;;;20.07;;
16516;SDS011;8371;52.272;9.746;2023-04-09T11:47:09;28.47;;;20.83;;
16516;SDS011;8371;52.272;9.746;2023-04-09T11:49:35;23.37;;;17.50;;
16516;SDS011;8371;52.272;9.746;2023-04-09T11:52:01;24.47;;;19.23;;
16516;SDS011;8371;52.272;9.746;2023-04-09T11:54:31;21.07;;;17.47;;
16516;SDS011;8371;52.272;9.746;2023-04-09T11:56:58;18.07;;;16.17;;
16516;SDS011;8371;52.272;9.746;2023-04-09T11:59:24;15.43;;;13.93;;
16516;SDS011;8371;52.272;9.746;2023-04-09T12:01:50;15.87;;;14.47;;
16516;SDS011;8371;52.272;9.746;2023-04-09T12:04:19;14.33;;;13.00;;
16516;SDS011;8371;52.272;9.746;2023-04-09T12:06:45;15.43;;;13.40;;
16516;SDS011;8371;52.272;9.746;2023-04-09T12:09:11;15.03;;;13.43;;
16516;SDS011;8371;52.272;9.746;2023-04-09T12:11:38;14.43;;;12.97;;
16516;SDS011;8371;52.272;9.746;2023-04-09T12:14:06;15.13;;;13.60;;
16516;SDS011;8371;52.272;9.746;2023-04-09T12:16:35;16.23;;;14.73;;
16516;SDS011;8371;52.272;9.746;2023-04-09T12:19:10;20.83;;;18.20;;
16516;SDS011;8371;52.272;9.746;2023-04-09T12:21:51;24.40;;;18.87;;
16516;SDS011;8371;52.272;9.746;2023-04-09T12:24:19;17.30;;;15.60;;
16516;SDS011;8371;52.272;9.746;2023-04-09T12:26:47;16.40;;;14.83;;
16516;SDS011;8371;52.272;9.746;2023-04-09T12:29:13;16.43;;;14.83;;
16516;SDS011;8371;52.272;9.746;2023-04-09T12:31:41;16.73;;;15.20;;
16516;SDS011;8371;52.272;9.746;2023-04-09T12:34:07;18.23;;;16.10;;
16516;SDS011;8371;52.272;9.746;2023-04-09T12:36:33;17.63;;;15.73;;
16516;SDS011;8371;52.272;9.746;2023-04-09T12:38:59;16.47;;;14.97;;
16516;SDS011;8371;52.272;9.746;2023-04-09T12:41:25;19.03;;;17.13;;
16516;SDS011;8371;52.272;9.746;2023-04-09T12:43:50;20.97;;;18.13;;
16516;SDS011;8371;52.272;9.746;2023-04-09T12:46:17;21.27;;;18.23;;
16516;SDS011;8371;52.272;9.746;2023-04-09T12:48:43;21.33;;;19.07;;
16516;SDS011;8371;52.272;9.746;2023-04-09T12:51:10;18.70;;;16.80;;
16516;SDS011;8371;52.272;9.746;2023-04-09T12:53:36;18.60;;;16.73;;
16516;SDS011;8371;52.272;9.746;2023-04-09T12:56:02;17.40;;;15.90;;
16516;SDS011;8371;52.272;9.746;2023-04-09T12:58:28;16.93;;;15.33;;
16516;SDS011;8371;52.272;9.746;2023-04-09T13:00:54;17.60;;;15.80;;
16516;SDS011;8371;52.272;9.746;2023-04-09T13:03:21;17.83;;;16.07;;
16516;SDS011;8371;52.272;9.746;2023-04-09T13:05:47;17.13;;;15.60;;
16516;SDS011;8371;52.272;9.746;2023-04-09T13:08:14;16.07;;;14.53;;
16516;SDS011;8371;52.272;9.746;2023-04-09T13:10:40;18.30;;;16.40;;
16516;SDS011;8371;52.272;9.746;2023-04-09T13:13:06;16.40;;;14.60;;
16516;SDS011;8371;52.272;9.746;2023-04-09T13:15:34;15.70;;;14.27;;
16516;SDS011;8371;52.272;9.746;2023-04-09T13:18:00;14.37;;;13.17;;
16516;SDS011;8371;52.272;9.746;2023-04-09T13:20:25;15.03;;;13.70;;
16516;SDS011;8371;52.272;9.746;2023-04-09T13:22:51;14.90;;;13.70;;
16516;SDS011;8371;52.272;9.746;2023-04-09T13:25:17;15.13;;;13.90;;
16516;SDS011;8371;52.272;9.746;2023-04-09T13:27:43;12.80;;;11.83;;
16516;SDS011;8371;52.272;9.746;2023-04-09T13:30:08;13.50;;;12.40;;
16516;SDS011;8371;52.272;9.746;2023-04-09T13:32:34;13.07;;;12.03;;
16516;SDS011;8371;52.272;9.746;2023-04-09T13:35:00;13.13;;;12.23;;
16516;SDS011;8371;52.272;9.746;2023-04-09T13:37:26;12.80;;;11.90;;
16516;SDS011;8371;52.272;9.746;2023-04-09T13:39:52;12.13;;;11.37;;
16516;SDS011;8371;52.272;9.746;2023-04-09T13:42:17;12.90;;;12.10;;
16516;SDS011;8371;52.272;9.746;2023-04-09T13:44:43;12.83;;;11.87;;
16516;SDS011;8371;52.272;9.746;2023-04-09T13:47:14;12.83;;;11.93;;
16516;SDS011;8371;52.272;9.746;2023-04-09T13:49:38;13.40;;;12.40;;
16516;SDS011;8371;52.272;9.746;2023-04-09T13:52:04;10.93;;;10.33;;
16516;SDS011;8371;52.272;9.746;2023-04-09T13:54:31;11.03;;;10.53;;
16516;SDS011;8371;52.272;9.746;2023-04-09T13:56:57;12.57;;;11.77;;
16516;SDS011;8371;52.272;9.746;2023-04-09T13:59:22;10.87;;;10.23;;
16516;SDS011;8371;52.272;9.746;2023-04-09T14:01:48;11.83;;;11.10;;
16516;SDS011;8371;52.272;9.746;2023-04-09T14:04:14;11.67;;;10.87;;
16516;SDS011;8371;52.272;9.746;2023-04-09T14:06:39;11.40;;;10.60;;
16516;SDS011;8371;52.272;9.746;2023-04-09T14:09:07;10.87;;;10.23;;
16516;SDS011;8371;52.272;9.746;2023-04-09T14:11:33;10.13;;;9.53;;
16516;SDS011;8371;52.272;9.746;2023-04-09T14:13:59;11.13;;;10.33;;
16516;SDS011;8371;52.272;9.746;2023-04-09T14:16:24;10.73;;;10.13;;
16516;SDS011;8371;52.272;9.746;2023-04-09T14:18:50;10.53;;;9.93;;
16516;SDS011;8371;52.272;9.746;2023-04-09T14:21:16;9.63;;;9.10;;
16516;SDS011;8371;52.272;9.746;2023-04-09T14:23:42;8.93;;;8.33;;
16516;SDS011;8371;52.272;9.746;2023-04-09T14:26:08;9.27;;;8.77;;
16516;SDS011;8371;52.272;9.746;2023-04-09T14:28:34;8.77;;;8.37;;
16516;SDS011;8371;52.272;9.746;2023-04-09T14:30:59;9.83;;;9.20;;
16516;SDS011;8371;52.272;9.746;2023-04-09T14:33:25;10.63;;;9.57;;
16516;SDS011;8371;52.272;9.746;2023-04-09T14:35:51;7.87;;;7.53;;
16516;SDS011;8371;52.272;9.746;2023-04-09T14:38:16;10.83;;;10.13;;
16516;SDS011;8371;52.272;9.746;2023-04-09T14:40:43;9.97;;;9.37;;
16516;SDS011;8371;52.272;9.746;2023-04-09T14:43:08;8.73;;;8.33;;
16516;SDS011;8371;52.272;9.746;2023-04-09T14:45:34;8.57;;;8.07;;
16516;SDS011;8371;52.272;9.746;2023-04-09T14:48:01;9.07;;;8.53;;
16516;SDS011;8371;52.272;9.746;2023-04-09T14:50:27;9.50;;;8.90;;
16516;SDS011;8371;52.272;9.746;2023-04-09T14:53:02;8.70;;;8.30;;
16516;SDS011;8371;52.272;9.746;2023-04-09T14:55:28;8.50;;;8.10;;
16516;SDS011;8371;52.272;9.746;2023-04-09T14:57:54;8.07;;;7.70;;
16516;SDS011;8371;52.272;9.746;2023-04-09T15:00:20;8.40;;;8.00;;
16516;SDS011;8371;52.272;9.746;2023-04-09T15:02:46;7.80;;;7.47;;